sensor_id;sensor_type;location;lat;lon;timestamp;temperature;humidity
7654;DHT22;3869;48.406;10.774;2023-07-30T00:00:11;18.00;99.90
7654;DHT22;3869;48.406;10.774;2023-07-30T00:02:41;18.10;99.90
7654;DHT22;3869;48.406;10.774;2023-07-30T00:05:09;18.10;99.90
7654;DHT22;3869;48.406;10.774;2023-07-30T00:07:37;18.10;99.90
7654;DHT22;3869;48.406;10.774;2023-07-30T00:10:06;18.10;99.90
7654;DHT22;3869;48.406;10.774;2023-07-30T00:12:34;18.10;99.90
7654;DHT22;3869;48.406;10.774;2023-07-30T00:15:02;18.10;99.90
7654;DHT22;3869;48.406;10.774;2023-07-30T00:17:30;18.00;99.90
7654;DHT22;3869;48.406;10.774;2023-07-30T00:19:59;18.00;99.90
7654;DHT22;3869;48.406;10.774;2023-07-30T00:22:27;18.00;99.90
7654;DHT22;3869;48.406;10.774;2023-07-30T00:24:55;18.00;99.90
7654;DHT22;3869;48.406;10.774;2023-07-30T00:27:23;18.10;99.90
7654;DHT22;3869;48.406;10.774;2023-07-30T00:29:51;18.10;99.90
7654;DHT22;3869;48.406;10.774;2023-07-30T00:32:19;18.10;99.90
7654;DHT22;3869;48.406;10.774;2023-07-30T00:34:47;18.10;99.90
7654;DHT22;3869;48.406;10.774;2023-07-30T00:37:16;18.10;99.90
7654;DHT22;3869;48.406;10.774;2023-07-30T00:39:44;18.10;99.90
7654;DHT22;3869;48.406;10.774;2023-07-30T00:42:12;18.00;99.90
7654;DHT22;3869;48.406;10.774;2023-07-30T00:44:40;18.00;99.90
7654;DHT22;3869;48.406;10.774;2023-07-30T00:47:08;18.00;99.90
7654;DHT22;3869;48.406;10.774;2023-07-30T00:49:37;18.00;99.90
7654;DHT22;3869;48.406;10.774;2023-07-30T00:52:07;18.00;99.90
7654;DHT22;3869;48.406;10.774;2023-07-30T00:54:37;18.00;99.90
7654;DHT22;3869;48.406;10.774;2023-07-30T00:57:06;18.00;99.90
7654;DHT22;3869;48.406;10.774;2023-07-30T00:59:34;18.00;99.90
7654;DHT22;3869;48.406;10.774;2023-07-30T01:02:03;18.00;99.90
7654;DHT22;3869;48.406;10.774;2023-07-30T01:04:32;18.00;99.90
7654;DHT22;3869;48.406;10.774;2023-07-30T01:07:00;18.10;99.90
7654;DHT22;3869;48.406;10.774;2023-07-30T01:09:29;18.10;99.90
7654;DHT22;3869;48.406;10.774;2023-07-30T01:12:00;18.00;99.90
7654;DHT22;3869;48.406;10.774;2023-07-30T01:14:30;18.10;99.90
7654;DHT22;3869;48.406;10.774;2023-07-30T01:16:58;18.00;99.90
7654;DHT22;3869;48.406;10.774;2023-07-30T01:19:26;18.00;99.90
7654;DHT22;3869;48.406;10.774;2023-07-30T01:21:56;18.00;99.90
7654;DHT22;3869;48.406;10.774;2023-07-30T01:24:24;18.00;99.90
7654;DHT22;3869;48.406;10.774;2023-07-30T01:26:55;17.90;99.90
7654;DHT22;3869;48.406;10.774;2023-07-30T01:29:28;17.80;99.90
7654;DHT22;3869;48.406;10.774;2023-07-30T01:32:05;17.80;99.90
7654;DHT22;3869;48.406;10.774;2023-07-30T01:34:35;17.70;99.90
7654;DHT22;3869;48.406;10.774;2023-07-30T01:37:09;17.70;99.90
7654;DHT22;3869;48.406;10.774;2023-07-30T01:39:39;17.70;99.90
7654;DHT22;3869;48.406;10.774;2023-07-30T01:42:08;17.70;99.90
7654;DHT22;3869;48.406;10.774;2023-07-30T01:44:39;17.70;99.90
7654;DHT22;3869;48.406;10.774;2023-07-30T01:47:07;17.70;99.90
7654;DHT22;3869;48.406;10.774;2023-07-30T01:49:35;17.70;99.90
7654;DHT22;3869;48.406;10.774;2023-07-30T01:52:04;17.70;99.90
7654;DHT22;3869;48.406;10.774;2023-07-30T01:54:33;17.80;99.90
7654;DHT22;3869;48.406;10.774;2023-07-30T01:57:01;17.80;99.90
7654;DHT22;3869;48.406;10.774;2023-07-30T01:59:29;17.80;99.90
7654;DHT22;3869;48.406;10.774;2023-07-30T02:01:57;17.90;99.90
7654;DHT22;3869;48.406;10.774;2023-07-30T02:04:25;17.90;99.90
7654;DHT22;3869;48.406;10.774;2023-07-30T02:06:53;18.00;99.90
7654;DHT22;3869;48.406;10.774;2023-07-30T02:09:21;18.00;99.90
7654;DHT22;3869;48.406;10.774;2023-07-30T02:11:51;18.00;99.90
7654;DHT22;3869;48.406;10.774;2023-07-30T02:14:19;17.90;99.90
7654;DHT22;3869;48.406;10.774;2023-07-30T02:16:47;17.90;99.90
7654;DHT22;3869;48.406;10.774;2023-07-30T02:19:15;17.80;99.90
7654;DHT22;3869;48.406;10.774;2023-07-30T02:21:43;17.90;99.90
7654;DHT22;3869;48.406;10.774;2023-07-30T02:24:11;17.90;99.90
7654;DHT22;3869;48.406;10.774;2023-07-30T02:26:39;17.90;99.90
7654;DHT22;3869;48.406;10.774;2023-07-30T02:29:08;17.90;99.90
7654;DHT22;3869;48.406;10.774;2023-07-30T02:31:36;18.00;99.90
7654;DHT22;3869;48.406;10.774;2023-07-30T02:34:04;18.00;99.90
7654;DHT22;3869;48.406;10.774;2023-07-30T02:36:33;18.00;99.90
7654;DHT22;3869;48.406;10.774;2023-07-30T02:39:01;17.90;99.90
7654;DHT22;3869;48.406;10.774;2023-07-30T02:41:29;18.00;99.90
7654;DHT22;3869;48.406;10.774;2023-07-30T02:43:57;17.90;99.90
7654;DHT22;3869;48.406;10.774;2023-07-30T02:46:27;17.90;99.90
7654;DHT22;3869;48.406;10.774;2023-07-30T02:48:55;17.90;99.90
7654;DHT22;3869;48.406;10.774;2023-07-30T02:51:23;17.90;99.90
7654;DHT22;3869;48.406;10.774;2023-07-30T02:53:52;17.90;99.90
7654;DHT22;3869;48.406;10.774;2023-07-30T02:56:21;18.00;99.90
7654;DHT22;3869;48.406;10.774;2023-07-30T02:58:49;18.00;99.90
7654;DHT22;3869;48.406;10.774;2023-07-30T03:01:17;18.00;99.90
7654;DHT22;3869;48.406;10.774;2023-07-30T03:03:46;17.90;99.90
7654;DHT22;3869;48.406;10.774;2023-07-30T03:06:15;17.90;99.90
7654;DHT22;3869;48.406;10.774;2023-07-30T03:08:43;18.00;99.90
7654;DHT22;3869;48.406;10.774;2023-07-30T03:11:11;17.90;99.90
7654;DHT22;3869;48.406;10.774;2023-07-30T03:13:40;17.80;99.90
7654;DHT22;3869;48.406;10.774;2023-07-30T03:16:08;17.80;99.90
7654;DHT22;3869;48.406;10.774;2023-07-30T03:18:36;17.80;99.90
7654;DHT22;3869;48.406;10.774;2023-07-30T03:21:05;17.80;99.90
7654;DHT22;3869;48.406;10.774;2023-07-30T03:23:33;17.80;99.90
7654;DHT22;3869;48.406;10.774;2023-07-30T03:26:01;17.80;99.90
7654;DHT22;3869;48.406;10.774;2023-07-30T03:28:29;17.70;99.90
7654;DHT22;3869;48.406;10.774;2023-07-30T03:30:57;17.70;99.90
7654;DHT22;3869;48.406;10.774;2023-07-30T03:33:25;17.70;99.90
7654;DHT22;3869;48.406;10.774;2023-07-30T03:35:53;17.60;99.90
7654;DHT22;3869;48.406;10.774;2023-07-30T03:38:23;17.60;99.90
7654;DHT22;3869;48.406;10.774;2023-07-30T03:40:51;17.50;99.90
7654;DHT22;3869;48.406;10.774;2023-07-30T03:43:19;17.50;99.90
7654;DHT22;3869;48.406;10.774;2023-07-30T03:45:47;17.50;99.90
7654;DHT22;3869;48.406;10.774;2023-07-30T03:48:15;17.40;99.90
7654;DHT22;3869;48.406;10.774;2023-07-30T03:50:43;17.40;99.90
7654;DHT22;3869;48.406;10.774;2023-07-30T03:53:11;17.40;99.90
7654;DHT22;3869;48.406;10.774;2023-07-30T03:55:41;17.30;99.90
7654;DHT22;3869;48.406;10.774;2023-07-30T03:58:09;17.30;99.90
7654;DHT22;3869;48.406;10.774;2023-07-30T04:00:37;17.30;99.90
7654;DHT22;3869;48.406;10.774;2023-07-30T04:03:05;17.30;99.90
7654;DHT22;3869;48.406;10.774;2023-07-30T04:05:33;17.30;99.90
7654;DHT22;3869;48.406;10.774;2023-07-30T04:08:01;17.30;99.90
7654;DHT22;3869;48.406;10.774;2023-07-30T04:10:29;17.30;99.90
7654;DHT22;3869;48.406;10.774;2023-07-30T04:12:59;17.30;99.90
7654;DHT22;3869;48.406;10.774;2023-07-30T04:15:27;17.30;99.90
7654;DHT22;3869;48.406;10.774;2023-07-30T04:17:55;17.30;99.90
7654;DHT22;3869;48.406;10.774;2023-07-30T04:20:23;17.30;99.90
7654;DHT22;3869;48.406;10.774;2023-07-30T04:22:51;17.30;99.90
7654;DHT22;3869;48.406;10.774;2023-07-30T04:25:19;17.30;99.90
7654;DHT22;3869;48.406;10.774;2023-07-30T04:27:47;17.30;99.90
7654;DHT22;3869;48.406;10.774;2023-07-30T04:30:17;17.30;99.90
7654;DHT22;3869;48.406;10.774;2023-07-30T04:32:45;17.40;99.90
7654;DHT22;3869;48.406;10.774;2023-07-30T04:35:13;17.40;99.90
7654;DHT22;3869;48.406;10.774;2023-07-30T04:37:41;17.40;99.90
7654;DHT22;3869;48.406;10.774;2023-07-30T04:40:10;17.40;99.90
7654;DHT22;3869;48.406;10.774;2023-07-30T04:42:38;17.40;99.90
7654;DHT22;3869;48.406;10.774;2023-07-30T04:45:07;17.50;99.90
7654;DHT22;3869;48.406;10.774;2023-07-30T04:47:36;17.50;99.90
7654;DHT22;3869;48.406;10.774;2023-07-30T04:50:05;17.50;99.90
7654;DHT22;3869;48.406;10.774;2023-07-30T04:52:33;17.50;99.90
7654;DHT22;3869;48.406;10.774;2023-07-30T04:55:01;17.50;99.90
7654;DHT22;3869;48.406;10.774;2023-07-30T04:57:29;17.50;99.90
7654;DHT22;3869;48.406;10.774;2023-07-30T04:59:57;17.50;99.90
7654;DHT22;3869;48.406;10.774;2023-07-30T05:02:25;17.50;99.90
7654;DHT22;3869;48.406;10.774;2023-07-30T05:04:54;17.60;99.90
7654;DHT22;3869;48.406;10.774;2023-07-30T05:07:22;17.60;99.90
7654;DHT22;3869;48.406;10.774;2023-07-30T05:09:50;17.60;99.90
7654;DHT22;3869;48.406;10.774;2023-07-30T05:12:18;17.60;99.90
7654;DHT22;3869;48.406;10.774;2023-07-30T05:14:46;17.60;99.90
7654;DHT22;3869;48.406;10.774;2023-07-30T05:17:14;17.60;99.90
7654;DHT22;3869;48.406;10.774;2023-07-30T05:19:43;17.70;99.90
7654;DHT22;3869;48.406;10.774;2023-07-30T05:22:12;17.70;99.90
7654;DHT22;3869;48.406;10.774;2023-07-30T05:24:40;17.80;99.90
7654;DHT22;3869;48.406;10.774;2023-07-30T05:27:08;17.80;99.90
7654;DHT22;3869;48.406;10.774;2023-07-30T05:29:36;17.90;99.90
7654;DHT22;3869;48.406;10.774;2023-07-30T05:32:05;17.90;99.90
7654;DHT22;3869;48.406;10.774;2023-07-30T05:34:33;18.00;99.90
7654;DHT22;3869;48.406;10.774;2023-07-30T05:37:01;18.00;99.90
7654;DHT22;3869;48.406;10.774;2023-07-30T05:39:29;18.10;99.90
7654;DHT22;3869;48.406;10.774;2023-07-30T05:41:57;18.10;99.90
7654;DHT22;3869;48.406;10.774;2023-07-30T05:44:25;18.20;99.90
7654;DHT22;3869;48.406;10.774;2023-07-30T05:46:53;18.20;99.90
7654;DHT22;3869;48.406;10.774;2023-07-30T05:49:21;18.30;99.90
7654;DHT22;3869;48.406;10.774;2023-07-30T05:51:49;18.30;99.90
7654;DHT22;3869;48.406;10.774;2023-07-30T05:54:18;18.40;99.90
7654;DHT22;3869;48.406;10.774;2023-07-30T05:56:47;18.50;99.90
7654;DHT22;3869;48.406;10.774;2023-07-30T05:59:15;18.50;99.90
7654;DHT22;3869;48.406;10.774;2023-07-30T06:01:47;18.50;99.90
7654;DHT22;3869;48.406;10.774;2023-07-30T06:04:15;18.60;99.90
7654;DHT22;3869;48.406;10.774;2023-07-30T06:06:43;18.60;99.90
7654;DHT22;3869;48.406;10.774;2023-07-30T06:09:11;18.70;99.90
7654;DHT22;3869;48.406;10.774;2023-07-30T06:11:39;18.80;99.90
7654;DHT22;3869;48.406;10.774;2023-07-30T06:14:09;18.90;99.90
7654;DHT22;3869;48.406;10.774;2023-07-30T06:16:37;18.90;99.90
7654;DHT22;3869;48.406;10.774;2023-07-30T06:19:05;18.90;99.90
7654;DHT22;3869;48.406;10.774;2023-07-30T06:21:33;19.00;99.90
7654;DHT22;3869;48.406;10.774;2023-07-30T06:24:01;19.10;99.90
7654;DHT22;3869;48.406;10.774;2023-07-30T06:26:29;19.10;99.90
7654;DHT22;3869;48.406;10.774;2023-07-30T06:28:57;19.20;99.90
7654;DHT22;3869;48.406;10.774;2023-07-30T06:31:27;19.20;99.90
7654;DHT22;3869;48.406;10.774;2023-07-30T06:33:55;19.30;99.90
7654;DHT22;3869;48.406;10.774;2023-07-30T06:36:23;19.30;99.90
7654;DHT22;3869;48.406;10.774;2023-07-30T06:38:51;19.40;99.90
7654;DHT22;3869;48.406;10.774;2023-07-30T06:41:19;19.40;99.90
7654;DHT22;3869;48.406;10.774;2023-07-30T06:43:47;19.40;99.90
7654;DHT22;3869;48.406;10.774;2023-07-30T06:46:15;19.40;99.90
7654;DHT22;3869;48.406;10.774;2023-07-30T06:48:45;19.50;99.90
7654;DHT22;3869;48.406;10.774;2023-07-30T06:51:13;19.50;99.90
7654;DHT22;3869;48.406;10.774;2023-07-30T06:53:41;19.60;99.90
7654;DHT22;3869;48.406;10.774;2023-07-30T06:56:09;19.60;99.90
7654;DHT22;3869;48.406;10.774;2023-07-30T06:58:37;19.70;99.90
7654;DHT22;3869;48.406;10.774;2023-07-30T07:01:06;19.80;99.90
7654;DHT22;3869;48.406;10.774;2023-07-30T07:03:34;19.90;99.90
7654;DHT22;3869;48.406;10.774;2023-07-30T07:06:04;20.00;99.90
7654;DHT22;3869;48.406;10.774;2023-07-30T07:08:32;20.00;99.90
7654;DHT22;3869;48.406;10.774;2023-07-30T07:11:00;20.00;99.90
7654;DHT22;3869;48.406;10.774;2023-07-30T07:13:28;20.00;99.90
7654;DHT22;3869;48.406;10.774;2023-07-30T07:15:56;20.00;99.90
7654;DHT22;3869;48.406;10.774;2023-07-30T07:18:24;20.00;99.90
7654;DHT22;3869;48.406;10.774;2023-07-30T07:20:52;20.00;99.90
7654;DHT22;3869;48.406;10.774;2023-07-30T07:23:22;20.00;99.90
7654;DHT22;3869;48.406;10.774;2023-07-30T07:25:50;20.00;99.90
7654;DHT22;3869;48.406;10.774;2023-07-30T07:28:18;20.00;99.90
7654;DHT22;3869;48.406;10.774;2023-07-30T07:30:47;20.10;99.90
7654;DHT22;3869;48.406;10.774;2023-07-30T07:33:15;20.10;99.90
7654;DHT22;3869;48.406;10.774;2023-07-30T07:35:43;20.20;99.90
7654;DHT22;3869;48.406;10.774;2023-07-30T07:38:11;20.20;99.90
7654;DHT22;3869;48.406;10.774;2023-07-30T07:40:40;20.20;99.90
7654;DHT22;3869;48.406;10.774;2023-07-30T07:43:09;20.30;99.90
7654;DHT22;3869;48.406;10.774;2023-07-30T07:45:37;20.30;99.90
7654;DHT22;3869;48.406;10.774;2023-07-30T07:48:05;20.40;99.90
7654;DHT22;3869;48.406;10.774;2023-07-30T07:50:33;20.40;99.90
7654;DHT22;3869;48.406;10.774;2023-07-30T07:53:01;20.40;99.90
7654;DHT22;3869;48.406;10.774;2023-07-30T07:55:29;20.40;99.90
7654;DHT22;3869;48.406;10.774;2023-07-30T07:57:58;20.50;99.90
7654;DHT22;3869;48.406;10.774;2023-07-30T08:00:26;20.50;99.90
7654;DHT22;3869;48.406;10.774;2023-07-30T08:02:54;20.50;99.90
7654;DHT22;3869;48.406;10.774;2023-07-30T08:05:23;20.60;99.90
7654;DHT22;3869;48.406;10.774;2023-07-30T08:07:51;20.60;99.90
7654;DHT22;3869;48.406;10.774;2023-07-30T08:10:20;20.60;99.90
7654;DHT22;3869;48.406;10.774;2023-07-30T08:12:48;20.60;99.90
7654;DHT22;3869;48.406;10.774;2023-07-30T08:15:17;20.60;99.90
7654;DHT22;3869;48.406;10.774;2023-07-30T08:17:45;20.70;99.90
7654;DHT22;3869;48.406;10.774;2023-07-30T08:20:13;20.70;99.90
7654;DHT22;3869;48.406;10.774;2023-07-30T08:22:41;20.70;99.90
7654;DHT22;3869;48.406;10.774;2023-07-30T08:25:09;20.70;99.90
7654;DHT22;3869;48.406;10.774;2023-07-30T08:27:37;20.80;99.90
7654;DHT22;3869;48.406;10.774;2023-07-30T08:30:07;20.90;99.90
7654;DHT22;3869;48.406;10.774;2023-07-30T08:32:36;21.00;99.90
7654;DHT22;3869;48.406;10.774;2023-07-30T08:35:07;21.10;99.90
7654;DHT22;3869;48.406;10.774;2023-07-30T08:37:35;21.10;99.90
7654;DHT22;3869;48.406;10.774;2023-07-30T08:40:04;21.10;99.90
7654;DHT22;3869;48.406;10.774;2023-07-30T08:42:33;21.10;99.90
7654;DHT22;3869;48.406;10.774;2023-07-30T08:45:01;21.10;99.90
7654;DHT22;3869;48.406;10.774;2023-07-30T08:47:32;21.10;99.90
7654;DHT22;3869;48.406;10.774;2023-07-30T08:50:02;21.10;99.90
7654;DHT22;3869;48.406;10.774;2023-07-30T08:52:30;21.10;99.90
7654;DHT22;3869;48.406;10.774;2023-07-30T08:54:59;21.10;99.90
7654;DHT22;3869;48.406;10.774;2023-07-30T08:57:29;21.20;99.90
7654;DHT22;3869;48.406;10.774;2023-07-30T09:00:02;21.30;99.90
7654;DHT22;3869;48.406;10.774;2023-07-30T09:02:37;21.40;99.90
7654;DHT22;3869;48.406;10.774;2023-07-30T09:05:07;21.40;99.90
7654;DHT22;3869;48.406;10.774;2023-07-30T09:07:35;21.50;99.90
7654;DHT22;3869;48.406;10.774;2023-07-30T09:10:04;21.60;99.90
7654;DHT22;3869;48.406;10.774;2023-07-30T09:12:33;21.70;99.90
7654;DHT22;3869;48.406;10.774;2023-07-30T09:15:02;21.90;99.90
7654;DHT22;3869;48.406;10.774;2023-07-30T09:17:31;21.90;99.90
7654;DHT22;3869;48.406;10.774;2023-07-30T09:20:00;22.00;99.90
7654;DHT22;3869;48.406;10.774;2023-07-30T09:22:30;22.00;99.90
7654;DHT22;3869;48.406;10.774;2023-07-30T09:25:02;22.10;99.90
7654;DHT22;3869;48.406;10.774;2023-07-30T09:27:31;22.10;99.90
7654;DHT22;3869;48.406;10.774;2023-07-30T09:30:00;22.10;99.90
7654;DHT22;3869;48.406;10.774;2023-07-30T09:32:30;22.00;99.90
7654;DHT22;3869;48.406;10.774;2023-07-30T09:35:04;22.00;99.90
7654;DHT22;3869;48.406;10.774;2023-07-30T09:37:36;21.90;99.90
7654;DHT22;3869;48.406;10.774;2023-07-30T09:40:06;21.90;99.90
7654;DHT22;3869;48.406;10.774;2023-07-30T09:42:35;21.90;99.90
7654;DHT22;3869;48.406;10.774;2023-07-30T09:45:08;22.00;99.90
7654;DHT22;3869;48.406;10.774;2023-07-30T09:47:37;22.00;99.90
7654;DHT22;3869;48.406;10.774;2023-07-30T09:50:06;22.00;99.90
7654;DHT22;3869;48.406;10.774;2023-07-30T09:52:36;22.00;99.90
7654;DHT22;3869;48.406;10.774;2023-07-30T09:55:06;22.00;99.90
7654;DHT22;3869;48.406;10.774;2023-07-30T09:57:35;22.00;99.90
7654;DHT22;3869;48.406;10.774;2023-07-30T10:00:03;22.10;99.90
7654;DHT22;3869;48.406;10.774;2023-07-30T10:02:37;22.10;99.90
7654;DHT22;3869;48.406;10.774;2023-07-30T10:05:10;22.10;99.90
7654;DHT22;3869;48.406;10.774;2023-07-30T10:07:42;21.80;99.90
7654;DHT22;3869;48.406;10.774;2023-07-30T10:10:13;21.40;99.90
7654;DHT22;3869;48.406;10.774;2023-07-30T10:12:42;21.00;99.90
7654;DHT22;3869;48.406;10.774;2023-07-30T10:15:11;20.70;99.90
7654;DHT22;3869;48.406;10.774;2023-07-30T10:17:39;20.40;99.90
7654;DHT22;3869;48.406;10.774;2023-07-30T10:20:21;20.10;99.90
7654;DHT22;3869;48.406;10.774;2023-07-30T10:22:55;20.00;99.90
7654;DHT22;3869;48.406;10.774;2023-07-30T10:25:28;20.00;99.90
7654;DHT22;3869;48.406;10.774;2023-07-30T10:27:58;19.90;99.90
7654;DHT22;3869;48.406;10.774;2023-07-30T10:30:31;19.70;99.90
7654;DHT22;3869;48.406;10.774;2023-07-30T10:33:03;19.60;99.90
7654;DHT22;3869;48.406;10.774;2023-07-30T10:35:36;19.60;99.90
7654;DHT22;3869;48.406;10.774;2023-07-30T10:38:18;19.50;99.90
7654;DHT22;3869;48.406;10.774;2023-07-30T10:41:01;19.40;99.90
7654;DHT22;3869;48.406;10.774;2023-07-30T10:43:30;19.30;99.90
7654;DHT22;3869;48.406;10.774;2023-07-30T10:45:58;19.20;99.90
7654;DHT22;3869;48.406;10.774;2023-07-30T10:48:33;19.30;99.90
7654;DHT22;3869;48.406;10.774;2023-07-30T10:51:02;19.20;99.90
7654;DHT22;3869;48.406;10.774;2023-07-30T10:53:31;19.30;99.90
7654;DHT22;3869;48.406;10.774;2023-07-30T10:56:00;19.20;99.90
7654;DHT22;3869;48.406;10.774;2023-07-30T10:58:30;19.20;99.90
7654;DHT22;3869;48.406;10.774;2023-07-30T11:00:59;19.30;99.90
7654;DHT22;3869;48.406;10.774;2023-07-30T11:03:29;19.50;99.90
7654;DHT22;3869;48.406;10.774;2023-07-30T11:05:59;19.60;99.90
7654;DHT22;3869;48.406;10.774;2023-07-30T11:08:38;19.60;99.90
7654;DHT22;3869;48.406;10.774;2023-07-30T11:11:07;19.80;99.90
7654;DHT22;3869;48.406;10.774;2023-07-30T11:13:36;19.80;99.90
7654;DHT22;3869;48.406;10.774;2023-07-30T11:16:05;19.90;99.90
7654;DHT22;3869;48.406;10.774;2023-07-30T11:18:34;19.90;99.90
7654;DHT22;3869;48.406;10.774;2023-07-30T11:21:04;19.90;99.90
7654;DHT22;3869;48.406;10.774;2023-07-30T11:23:32;20.10;99.90
7654;DHT22;3869;48.406;10.774;2023-07-30T11:26:03;20.20;99.90
7654;DHT22;3869;48.406;10.774;2023-07-30T11:28:32;20.30;99.90
7654;DHT22;3869;48.406;10.774;2023-07-30T11:31:05;20.40;99.90
7654;DHT22;3869;48.406;10.774;2023-07-30T11:33:35;20.40;99.90
7654;DHT22;3869;48.406;10.774;2023-07-30T11:36:04;20.40;99.90
7654;DHT22;3869;48.406;10.774;2023-07-30T11:38:34;20.40;99.90
7654;DHT22;3869;48.406;10.774;2023-07-30T11:41:04;20.50;99.90
7654;DHT22;3869;48.406;10.774;2023-07-30T11:43:37;20.60;99.90
7654;DHT22;3869;48.406;10.774;2023-07-30T11:46:10;20.70;99.90
7654;DHT22;3869;48.406;10.774;2023-07-30T11:48:40;20.90;99.90
7654;DHT22;3869;48.406;10.774;2023-07-30T11:51:19;20.90;99.90
7654;DHT22;3869;48.406;10.774;2023-07-30T11:53:49;21.00;99.90
7654;DHT22;3869;48.406;10.774;2023-07-30T11:56:24;21.10;99.90
7654;DHT22;3869;48.406;10.774;2023-07-30T11:58:55;21.20;99.90
7654;DHT22;3869;48.406;10.774;2023-07-30T12:01:24;21.30;99.90
7654;DHT22;3869;48.406;10.774;2023-07-30T12:03:56;21.10;99.90
7654;DHT22;3869;48.406;10.774;2023-07-30T12:06:38;21.00;99.90
7654;DHT22;3869;48.406;10.774;2023-07-30T12:09:10;21.10;99.90
7654;DHT22;3869;48.406;10.774;2023-07-30T12:11:46;21.20;99.90
7654;DHT22;3869;48.406;10.774;2023-07-30T12:14:15;21.20;99.90
7654;DHT22;3869;48.406;10.774;2023-07-30T12:16:43;21.20;99.90
7654;DHT22;3869;48.406;10.774;2023-07-30T12:19:11;21.20;99.90
7654;DHT22;3869;48.406;10.774;2023-07-30T12:21:39;21.10;99.90
7654;DHT22;3869;48.406;10.774;2023-07-30T12:24:08;20.90;99.90
7654;DHT22;3869;48.406;10.774;2023-07-30T12:26:36;20.50;99.90
7654;DHT22;3869;48.406;10.774;2023-07-30T12:29:05;20.30;99.90
7654;DHT22;3869;48.406;10.774;2023-07-30T12:31:33;20.10;99.90
7654;DHT22;3869;48.406;10.774;2023-07-30T12:34:01;20.10;99.90
7654;DHT22;3869;48.406;10.774;2023-07-30T12:36:30;20.10;99.90
7654;DHT22;3869;48.406;10.774;2023-07-30T12:38:58;20.10;99.90
7654;DHT22;3869;48.406;10.774;2023-07-30T12:41:26;20.10;99.90
7654;DHT22;3869;48.406;10.774;2023-07-30T12:43:55;20.10;99.90
7654;DHT22;3869;48.406;10.774;2023-07-30T12:46:25;20.10;99.90
7654;DHT22;3869;48.406;10.774;2023-07-30T12:48:57;20.20;99.90
7654;DHT22;3869;48.406;10.774;2023-07-30T12:51:29;20.20;99.90
7654;DHT22;3869;48.406;10.774;2023-07-30T12:53:57;20.10;99.90
7654;DHT22;3869;48.406;10.774;2023-07-30T12:56:25;20.10;99.90
7654;DHT22;3869;48.406;10.774;2023-07-30T12:58:53;20.20;99.90
7654;DHT22;3869;48.406;10.774;2023-07-30T13:01:21;20.30;99.90
7654;DHT22;3869;48.406;10.774;2023-07-30T13:03:51;20.50;99.90
7654;DHT22;3869;48.406;10.774;2023-07-30T13:06:21;20.70;99.90
7654;DHT22;3869;48.406;10.774;2023-07-30T13:08:49;20.80;99.90
7654;DHT22;3869;48.406;10.774;2023-07-30T13:11:17;21.00;99.90
7654;DHT22;3869;48.406;10.774;2023-07-30T13:13:45;21.10;99.90
7654;DHT22;3869;48.406;10.774;2023-07-30T13:16:13;21.20;99.90
7654;DHT22;3869;48.406;10.774;2023-07-30T13:18:41;21.30;99.90
7654;DHT22;3869;48.406;10.774;2023-07-30T13:21:11;21.40;99.90
7654;DHT22;3869;48.406;10.774;2023-07-30T13:23:39;21.50;99.90
7654;DHT22;3869;48.406;10.774;2023-07-30T13:26:07;21.70;99.90
7654;DHT22;3869;48.406;10.774;2023-07-30T13:28:35;21.80;99.90
7654;DHT22;3869;48.406;10.774;2023-07-30T13:31:03;21.70;99.90
7654;DHT22;3869;48.406;10.774;2023-07-30T13:33:31;21.70;99.90
7654;DHT22;3869;48.406;10.774;2023-07-30T13:35:59;21.90;99.90
7654;DHT22;3869;48.406;10.774;2023-07-30T13:38:28;22.10;99.90
7654;DHT22;3869;48.406;10.774;2023-07-30T13:40:56;22.20;99.90
7654;DHT22;3869;48.406;10.774;2023-07-30T13:43:24;22.30;99.90
7654;DHT22;3869;48.406;10.774;2023-07-30T13:45:52;22.40;99.90
7654;DHT22;3869;48.406;10.774;2023-07-30T13:48:20;22.50;99.90
7654;DHT22;3869;48.406;10.774;2023-07-30T13:50:48;22.60;99.90
7654;DHT22;3869;48.406;10.774;2023-07-30T13:53:16;22.70;99.90
7654;DHT22;3869;48.406;10.774;2023-07-30T13:55:46;22.80;99.90
7654;DHT22;3869;48.406;10.774;2023-07-30T13:58:14;22.90;99.90
7654;DHT22;3869;48.406;10.774;2023-07-30T14:00:42;23.00;99.90
7654;DHT22;3869;48.406;10.774;2023-07-30T14:03:10;23.10;99.90
7654;DHT22;3869;48.406;10.774;2023-07-30T14:05:40;23.20;99.90
7654;DHT22;3869;48.406;10.774;2023-07-30T14:08:08;23.30;99.90
7654;DHT22;3869;48.406;10.774;2023-07-30T14:10:37;23.20;99.90
7654;DHT22;3869;48.406;10.774;2023-07-30T14:13:06;23.20;99.90
7654;DHT22;3869;48.406;10.774;2023-07-30T14:15:34;23.30;99.90
7654;DHT22;3869;48.406;10.774;2023-07-30T14:18:03;23.30;99.90
7654;DHT22;3869;48.406;10.774;2023-07-30T14:20:31;23.30;99.90
7654;DHT22;3869;48.406;10.774;2023-07-30T14:22:59;23.20;99.90
7654;DHT22;3869;48.406;10.774;2023-07-30T14:25:28;23.10;99.90
7654;DHT22;3869;48.406;10.774;2023-07-30T14:27:56;22.90;99.90
7654;DHT22;3869;48.406;10.774;2023-07-30T14:30:25;22.80;99.90
7654;DHT22;3869;48.406;10.774;2023-07-30T14:32:53;22.80;99.90
7654;DHT22;3869;48.406;10.774;2023-07-30T14:35:21;22.90;99.90
7654;DHT22;3869;48.406;10.774;2023-07-30T14:37:49;22.90;99.90
7654;DHT22;3869;48.406;10.774;2023-07-30T14:40:17;23.00;99.90
7654;DHT22;3869;48.406;10.774;2023-07-30T14:42:45;23.00;99.90
7654;DHT22;3869;48.406;10.774;2023-07-30T14:45:14;23.10;99.90
7654;DHT22;3869;48.406;10.774;2023-07-30T14:47:43;23.20;99.90
7654;DHT22;3869;48.406;10.774;2023-07-30T14:50:15;23.30;99.90
7654;DHT22;3869;48.406;10.774;2023-07-30T14:52:43;23.30;99.90
7654;DHT22;3869;48.406;10.774;2023-07-30T14:55:11;23.40;99.90
7654;DHT22;3869;48.406;10.774;2023-07-30T14:57:39;23.50;99.90
7654;DHT22;3869;48.406;10.774;2023-07-30T15:00:08;23.50;99.90
7654;DHT22;3869;48.406;10.774;2023-07-30T15:02:38;23.50;99.90
7654;DHT22;3869;48.406;10.774;2023-07-30T15:05:09;23.60;99.90
7654;DHT22;3869;48.406;10.774;2023-07-30T15:07:37;23.50;99.90
7654;DHT22;3869;48.406;10.774;2023-07-30T15:10:06;23.60;99.90
7654;DHT22;3869;48.406;10.774;2023-07-30T15:12:34;23.50;99.90
7654;DHT22;3869;48.406;10.774;2023-07-30T15:15:02;23.50;99.90
7654;DHT22;3869;48.406;10.774;2023-07-30T15:17:31;23.40;99.90
7654;DHT22;3869;48.406;10.774;2023-07-30T15:19:59;23.40;99.90
7654;DHT22;3869;48.406;10.774;2023-07-30T15:22:28;23.30;99.90
7654;DHT22;3869;48.406;10.774;2023-07-30T15:24:56;23.30;99.90
7654;DHT22;3869;48.406;10.774;2023-07-30T15:27:24;23.30;99.90
7654;DHT22;3869;48.406;10.774;2023-07-30T15:29:52;23.30;99.90
7654;DHT22;3869;48.406;10.774;2023-07-30T15:32:20;23.20;99.90
7654;DHT22;3869;48.406;10.774;2023-07-30T15:34:49;23.20;99.90
7654;DHT22;3869;48.406;10.774;2023-07-30T15:37:17;23.30;99.90
7654;DHT22;3869;48.406;10.774;2023-07-30T15:39:46;23.30;99.90
7654;DHT22;3869;48.406;10.774;2023-07-30T15:42:14;23.40;99.90
7654;DHT22;3869;48.406;10.774;2023-07-30T15:44:42;23.30;99.90
7654;DHT22;3869;48.406;10.774;2023-07-30T15:47:10;23.30;99.90
7654;DHT22;3869;48.406;10.774;2023-07-30T15:49:39;23.20;99.90
7654;DHT22;3869;48.406;10.774;2023-07-30T15:52:07;23.10;99.90
7654;DHT22;3869;48.406;10.774;2023-07-30T15:54:36;23.00;99.90